Time;durP1;ratioP1;P1;durP2;ratioP2;P2;SDS_P1;SDS_P2;PMS_P1;PMS_P2;Temp;Humidity;BMP_temperature;BMP_pressure;BME280_temperature;BME280_humidity;BME280_pressure;Samples;Min_cycle;Max_cycle;Signal;HPM_P1;HPM_P2
2023/06/02 00:01:21;;;;;;;4.83;2.30;;;14.40;1.00;;;;;;5057122;28;20907;-81
2023/06/02 00:03:48;;;;;;;6.60;3.17;;;14.40;1.00;;;;;;5056636;28;20466;-83
2023/06/02 00:06:15;;;;;;;5.30;3.03;;;14.30;1.00;;;;;;5058542;28;20454;-80
2023/06/02 00:08:42;;;;;;;6.00;3.40;;;14.30;1.00;;;;;;5058232;28;21000;-82
2023/06/02 00:11:12;;;;;;;5.87;2.77;;;14.30;1.00;;;;;;5057999;28;20482;-81
2023/06/02 00:13:41;;;;;;;6.20;2.67;;;14.30;1.00;;;;;;5054028;28;20484;-82
2023/06/02 00:16:08;;;;;;;7.37;3.80;;;14.20;1.00;;;;;;5056323;28;20450;-81
2023/06/02 00:18:37;;;;;;;10.63;3.40;;;14.20;1.00;;;;;;5056115;28;20506;-81
2023/06/02 00:21:06;;;;;;;9.47;3.90;;;14.10;1.00;;;;;;5055975;28;20486;-80
2023/06/02 00:23:34;;;;;;;7.13;3.57;;;14.10;1.00;;;;;;5052961;28;20458;-81
2023/06/02 00:26:01;;;;;;;6.77;3.83;;;14.10;1.00;;;;;;5056081;28;20503;-81
2023/06/02 00:28:29;;;;;;;6.17;3.20;;;14.00;1.00;;;;;;5056651;28;20506;-81
2023/06/02 00:30:57;;;;;;;8.10;3.03;;;13.90;1.00;;;;;;5059597;28;20491;-81
2023/06/02 00:33:24;;;;;;;8.17;3.13;;;14.00;1.00;;;;;;5059206;28;20450;-80
2023/06/02 00:35:53;;;;;;;8.80;3.33;;;14.00;1.00;;;;;;5059596;28;20592;-82
2023/06/02 00:38:20;;;;;;;8.10;3.30;;;14.00;1.00;;;;;;5060333;28;20509;-82
2023/06/02 00:40:46;;;;;;;5.03;3.60;;;14.00;1.00;;;;;;5058858;28;21174;-81
2023/06/02 00:43:13;;;;;;;9.67;3.83;;;14.00;1.00;;;;;;5058997;28;20489;-81
2023/06/02 00:45:40;;;;;;;9.57;3.73;;;14.00;1.00;;;;;;5059749;28;20550;-81
2023/06/02 00:48:08;;;;;;;8.00;3.00;;;13.90;1.00;;;;;;5059788;28;20646;-80
2023/06/02 00:50:35;;;;;;;9.77;2.90;;;13.90;1.00;;;;;;5058792;28;20464;-80
2023/06/02 00:53:03;;;;;;;5.73;3.20;;;13.80;1.00;;;;;;5058975;28;20452;-80
2023/06/02 00:55:31;;;;;;;4.70;2.50;;;13.80;1.00;;;;;;5059827;28;20452;-80
2023/06/02 00:57:59;;;;;;;7.93;3.13;;;13.80;1.00;;;;;;5058761;28;20833;-81
2023/06/02 01:00:27;;;;;;;10.93;3.10;;;13.80;1.00;;;;;;5059684;28;20487;-79
2023/06/02 01:02:57;;;;;;;7.43;3.07;;;13.80;1.00;;;;;;5058478;28;20984;-80
2023/06/02 01:05:26;;;;;;;7.63;3.00;;;13.70;1.00;;;;;;5060167;28;20461;-81
2023/06/02 01:08:00;;;;;;;7.73;3.27;;;13.60;1.00;;;;;;5059294;28;20474;-80
2023/06/02 01:10:28;;;;;;;8.73;3.10;;;13.60;1.00;;;;;;5059938;28;20451;-80
2023/06/02 01:12:56;;;;;;;6.60;3.00;;;13.50;1.00;;;;;;5058745;28;20455;-80
2023/06/02 01:15:23;;;;;;;5.00;2.50;;;13.50;1.00;;;;;;5059350;28;20461;-81
2023/06/02 01:17:51;;;;;;;7.23;3.67;;;13.50;1.00;;;;;;5059103;28;20471;-80
2023/06/02 01:20:21;;;;;;;6.90;2.77;;;13.40;1.00;;;;;;5059154;28;20480;-82
2023/06/02 01:22:57;;;;;;;8.90;2.63;;;13.50;1.00;;;;;;5057802;28;20459;-80
2023/06/02 01:25:27;;;;;;;9.90;3.03;;;13.50;1.00;;;;;;5058712;28;20522;-80
2023/06/02 01:27:57;;;;;;;6.10;2.80;;;13.40;1.00;;;;;;5058647;28;20562;-81
2023/06/02 01:30:25;;;;;;;8.20;3.33;;;13.30;1.00;;;;;;5058552;28;20451;-81
2023/06/02 01:32:59;;;;;;;6.13;2.70;;;13.30;1.00;;;;;;5057448;28;20453;-79
2023/06/02 01:35:28;;;;;;;7.73;3.23;;;13.30;1.00;;;;;;5058928;28;20809;-80
2023/06/02 01:37:58;;;;;;;6.07;2.80;;;13.30;1.00;;;;;;5058838;28;20470;-81
2023/06/02 01:40:28;;;;;;;6.63;2.90;;;13.20;1.00;;;;;;5058654;28;20490;-80
2023/06/02 01:42:56;;;;;;;7.47;2.90;;;13.20;1.00;;;;;;5058110;28;20456;-80
2023/06/02 01:45:24;;;;;;;8.77;3.60;;;13.20;1.00;;;;;;5059277;28;20452;-81
2023/06/02 01:47:50;;;;;;;7.20;3.70;;;13.30;1.00;;;;;;5059068;28;20531;-81
2023/06/02 01:50:17;;;;;;;7.60;3.57;;;13.30;1.00;;;;;;5059004;28;20457;-81
2023/06/02 01:52:44;;;;;;;6.90;3.30;;;13.20;1.00;;;;;;5058624;28;20482;-81
2023/06/02 01:55:11;;;;;;;10.80;3.30;;;13.20;1.00;;;;;;5059607;28;20974;-81
2023/06/02 01:57:39;;;;;;;11.53;3.30;;;13.20;1.00;;;;;;5058896;28;20471;-80
2023/06/02 02:00:08;;;;;;;13.30;3.83;;;13.20;1.00;;;;;;5059074;28;20487;-80
2023/06/02 02:02:35;;;;;;;8.87;3.73;;;13.20;1.00;;;;;;5058475;28;20899;-82
2023/06/02 02:05:03;;;;;;;13.73;3.83;;;13.20;1.00;;;;;;5059313;28;20457;-80
2023/06/02 02:07:30;;;;;;;7.93;3.87;;;13.20;1.00;;;;;;5058588;28;20475;-80
2023/06/02 02:09:57;;;;;;;5.43;3.03;;;13.20;1.00;;;;;;5059247;28;20509;-81
2023/06/02 02:12:24;;;;;;;6.07;3.53;;;13.20;1.00;;;;;;5061037;28;20452;-79
2023/06/02 02:14:56;;;;;;;8.97;3.73;;;13.20;1.00;;;;;;5059116;28;20459;-81
2023/06/02 02:17:25;;;;;;;5.70;3.23;;;13.20;1.00;;;;;;5057962;28;20476;-80
2023/06/02 02:19:55;;;;;;;7.37;4.13;;;13.10;1.00;;;;;;5058416;28;20835;-82
2023/06/02 02:22:22;;;;;;;13.13;4.10;;;13.20;1.00;;;;;;5057359;28;20477;-77
2023/06/02 02:24:49;;;;;;;11.47;3.50;;;13.20;1.00;;;;;;5058234;28;20493;-80
2023/06/02 02:27:17;;;;;;;9.60;4.03;;;13.30;1.00;;;;;;5056483;28;20930;-80
2023/06/02 02:29:44;;;;;;;12.43;4.20;;;13.20;1.00;;;;;;5057596;28;20937;-81
2023/06/02 02:32:12;;;;;;;5.37;3.47;;;13.10;1.00;;;;;;5057246;28;20960;-80
2023/06/02 02:34:39;;;;;;;7.13;3.60;;;13.10;1.00;;;;;;5057388;28;20451;-80
2023/06/02 02:37:09;;;;;;;9.00;3.53;;;13.10;1.00;;;;;;5057022;28;20482;-80
2023/06/02 02:39:36;;;;;;;8.63;3.60;;;13.00;1.00;;;;;;5058032;28;20498;-80
2023/06/02 02:42:03;;;;;;;9.87;3.30;;;13.00;1.00;;;;;;5057396;28;20489;-80
2023/06/02 02:44:30;;;;;;;9.53;3.57;;;13.00;1.00;;;;;;5057613;28;20459;-80
2023/06/02 02:46:58;;;;;;;7.37;2.70;;;13.00;1.00;;;;;;5057810;28;20555;-81
2023/06/02 02:49:27;;;;;;;11.20;4.23;;;13.10;1.00;;;;;;5058200;28;20510;-81
2023/06/02 02:51:53;;;;;;;9.33;5.40;;;13.00;1.00;;;;;;5056526;28;20487;-81
2023/06/02 02:54:20;;;;;;;7.60;3.50;;;12.90;1.00;;;;;;5056750;28;20454;-80
2023/06/02 02:56:47;;;;;;;5.87;3.10;;;13.00;1.00;;;;;;5058573;28;20472;-81
2023/06/02 02:59:15;;;;;;;7.50;3.37;;;13.00;1.00;;;;;;5058366;28;20451;-81
2023/06/02 03:01:43;;;;;;;11.17;3.70;;;13.00;1.00;;;;;;5057707;28;20480;-79
2023/06/02 03:04:11;;;;;;;9.70;3.57;;;13.10;1.00;;;;;;5057688;28;20456;-81
2023/06/02 03:06:40;;;;;;;6.80;4.00;;;13.10;1.00;;;;;;5057771;28;20453;-81
2023/06/02 03:09:08;;;;;;;8.10;3.27;;;13.20;1.00;;;;;;5057779;28;20545;-81
2023/06/02 03:11:35;;;;;;;5.43;2.67;;;13.10;1.00;;;;;;5057181;28;20455;-79
2023/06/02 03:14:01;;;;;;;5.57;2.73;;;13.20;1.00;;;;;;5063476;28;20448;-79
2023/06/02 03:16:29;;;;;;;11.80;4.20;;;13.20;1.00;;;;;;5064461;28;20457;-79
2023/06/02 03:18:56;;;;;;;6.30;3.13;;;13.10;1.00;;;;;;5060633;28;20542;-80
2023/06/02 03:21:23;;;;;;;12.33;4.00;;;13.20;1.00;;;;;;5055722;28;20486;-80
2023/06/02 03:23:52;;;;;;;8.60;3.33;;;13.10;1.00;;;;;;5055283;28;20546;-80
2023/06/02 03:26:25;;;;;;;12.47;3.87;;;13.10;1.00;;;;;;5056192;28;20509;-79
2023/06/02 03:28:52;;;;;;;9.77;3.53;;;13.10;1.00;;;;;;5054207;28;20464;-80
2023/06/02 03:31:19;;;;;;;12.23;3.53;;;13.10;1.00;;;;;;5055363;28;20455;-79
2023/06/02 03:33:47;;;;;;;9.73;2.97;;;13.10;1.00;;;;;;5054715;28;20452;-80
2023/06/02 03:36:17;;;;;;;8.70;3.30;;;13.10;1.00;;;;;;5055936;28;20448;-79
2023/06/02 03:38:44;;;;;;;8.30;4.97;;;13.20;1.00;;;;;;5055600;28;20519;-79
2023/06/02 03:41:12;;;;;;;11.17;3.27;;;13.10;1.00;;;;;;5055606;28;20476;-81
2023/06/02 03:43:40;;;;;;;9.43;3.20;;;13.10;1.00;;;;;;5054852;28;20455;-78
2023/06/02 03:46:06;;;;;;;8.50;3.23;;;13.10;1.00;;;;;;5056032;28;20559;-80
2023/06/02 03:48:34;;;;;;;7.83;3.60;;;13.10;1.00;;;;;;5054864;28;20480;-79
2023/06/02 03:51:01;;;;;;;7.57;3.57;;;13.10;1.00;;;;;;5055120;28;20458;-80
2023/06/02 03:53:27;;;;;;;8.07;3.40;;;13.00;1.00;;;;;;5054496;28;20450;-78
2023/06/02 03:55:54;;;;;;;14.50;3.87;;;13.00;1.00;;;;;;5056223;28;20451;-79
2023/06/02 03:58:23;;;;;;;14.27;4.10;;;13.00;1.00;;;;;;5055247;28;20474;-80
2023/06/02 04:00:50;;;;;;;9.03;3.70;;;13.00;1.00;;;;;;5055401;28;20487;-78
2023/06/02 04:03:17;;;;;;;7.53;3.53;;;13.00;1.00;;;;;;5053015;28;20451;-78
2023/06/02 04:05:44;;;;;;;9.17;3.30;;;13.10;1.00;;;;;;5055503;28;20507;-80
2023/06/02 04:08:14;;;;;;;10.43;3.80;;;13.10;1.00;;;;;;5060442;28;20477;-79
2023/06/02 04:10:40;;;;;;;7.70;3.00;;;13.10;1.00;;;;;;5063518;28;20456;-80
2023/06/02 04:13:07;;;;;;;6.73;3.40;;;13.10;1.00;;;;;;5061083;28;20450;-79
2023/06/02 04:15:35;;;;;;;8.47;3.80;;;13.10;1.00;;;;;;5059133;28;20481;-81
2023/06/02 04:18:02;;;;;;;10.13;4.03;;;13.00;1.00;;;;;;5056324;28;20467;-80
2023/06/02 04:20:29;;;;;;;6.93;3.13;;;13.00;1.00;;;;;;5056305;28;20455;-81
2023/06/02 04:22:56;;;;;;;9.77;3.50;;;13.00;1.00;;;;;;5054487;28;20450;-81
2023/06/02 04:25:23;;;;;;;7.83;3.70;;;12.90;1.00;;;;;;5054990;28;20457;-80
2023/06/02 04:27:49;;;;;;;7.80;3.37;;;12.90;1.00;;;;;;5054078;28;20474;-81
2023/06/02 04:30:16;;;;;;;7.57;3.20;;;12.90;1.00;;;;;;5056054;28;20458;-80
2023/06/02 04:32:44;;;;;;;9.10;3.70;;;12.90;1.00;;;;;;5054510;28;20459;-80
2023/06/02 04:35:11;;;;;;;9.07;3.77;;;13.00;1.00;;;;;;5055994;28;20467;-80
2023/06/02 04:37:38;;;;;;;8.47;3.73;;;13.00;1.00;;;;;;5055915;28;21066;-79
2023/06/02 04:40:06;;;;;;;10.63;3.93;;;13.00;1.00;;;;;;5055746;28;20822;-80
2023/06/02 04:42:32;;;;;;;7.90;3.70;;;13.10;1.00;;;;;;5054367;28;20590;-80
2023/06/02 04:45:01;;;;;;;8.40;3.77;;;13.10;1.00;;;;;;5053566;28;20448;-81
2023/06/02 04:47:28;;;;;;;7.97;3.20;;;13.10;1.00;;;;;;5056139;28;20522;-80
2023/06/02 04:49:56;;;;;;;16.30;5.23;;;13.10;1.00;;;;;;5053584;28;20435;-79
2023/06/02 04:52:23;;;;;;;9.47;4.10;;;13.10;1.00;;;;;;5051416;28;20468;-80
2023/06/02 04:54:49;;;;;;;9.70;3.40;;;13.10;1.00;;;;;;5049479;28;20532;-78
2023/06/02 04:57:17;;;;;;;9.63;3.30;;;13.10;1.00;;;;;;5055060;28;21133;-79
2023/06/02 04:59:44;;;;;;;10.10;3.70;;;13.10;1.00;;;;;;5054617;28;20466;-78
2023/06/02 05:02:12;;;;;;;8.50;3.10;;;13.10;1.00;;;;;;5051600;28;20484;-79
2023/06/02 05:04:38;;;;;;;9.97;4.10;;;13.10;1.00;;;;;;5055298;28;20458;-80
2023/06/02 05:07:07;;;;;;;11.50;3.90;;;13.20;1.00;;;;;;5044912;28;20465;-79
2023/06/02 05:09:34;;;;;;;9.10;3.23;;;13.10;1.00;;;;;;5048852;28;20452;-80
2023/06/02 05:12:02;;;;;;;10.77;2.90;;;13.20;1.00;;;;;;5045575;28;20457;-79
2023/06/02 05:14:28;;;;;;;9.47;3.80;;;13.20;1.00;;;;;;5050447;28;20477;-80
2023/06/02 05:16:56;;;;;;;10.40;4.23;;;13.10;1.00;;;;;;5056069;28;20474;-80
2023/06/02 05:19:23;;;;;;;7.93;3.50;;;13.10;1.00;;;;;;5057732;28;20449;-79
2023/06/02 05:21:50;;;;;;;10.57;3.60;;;13.20;1.00;;;;;;5065093;28;20488;-79
2023/06/02 05:24:18;;;;;;;8.67;3.63;;;13.20;1.00;;;;;;5056501;28;20455;-80
2023/06/02 05:26:45;;;;;;;8.97;3.77;;;13.20;1.00;;;;;;5059625;28;20451;-79
2023/06/02 05:29:12;;;;;;;10.70;3.60;;;13.20;1.00;;;;;;5057324;28;20452;-80
2023/06/02 05:31:39;;;;;;;11.20;3.73;;;13.10;1.00;;;;;;5060844;28;20451;-80
2023/06/02 05:34:06;;;;;;;13.20;4.23;;;13.10;1.00;;;;;;5056556;28;20453;-80
2023/06/02 05:36:33;;;;;;;13.20;5.00;;;13.10;1.00;;;;;;5057019;28;20458;-80
2023/06/02 05:39:00;;;;;;;9.10;3.50;;;13.20;1.00;;;;;;5056336;28;20460;-79
2023/06/02 05:41:28;;;;;;;11.67;3.87;;;13.20;1.00;;;;;;5057147;28;20479;-80
2023/06/02 05:43:55;;;;;;;11.07;3.87;;;13.20;1.00;;;;;;5063056;28;20454;-80
2023/06/02 05:46:23;;;;;;;7.33;3.47;;;13.20;1.00;;;;;;5049399;28;20450;-80
2023/06/02 05:48:50;;;;;;;11.13;3.43;;;13.20;1.00;;;;;;5056201;28;20477;-80
2023/06/02 05:51:17;;;;;;;9.93;3.90;;;13.30;1.00;;;;;;5057968;28;20820;-80
2023/06/02 05:53:43;;;;;;;7.40;3.50;;;13.30;1.00;;;;;;5058728;28;20462;-81
2023/06/02 05:56:10;;;;;;;15.80;4.70;;;13.40;1.00;;;;;;5059266;28;20503;-80
2023/06/02 05:58:41;;;;;;;8.13;3.57;;;13.40;1.00;;;;;;5058262;28;20471;-81
2023/06/02 06:01:09;;;;;;;10.87;4.80;;;13.30;1.00;;;;;;5059148;28;20479;-81
2023/06/02 06:03:36;;;;;;;11.77;4.57;;;13.50;1.00;;;;;;5056797;28;20449;-81
2023/06/02 06:06:03;;;;;;;7.60;4.00;;;13.50;1.00;;;;;;5058246;28;20458;-80
2023/06/02 06:08:30;;;;;;;6.70;4.13;;;13.50;1.00;;;;;;5056836;28;20475;-81
2023/06/02 06:10:57;;;;;;;10.07;4.27;;;13.60;1.00;;;;;;5057141;28;20447;-81
2023/06/02 06:13:24;;;;;;;8.47;4.20;;;13.60;1.00;;;;;;5056884;28;20452;-82
2023/06/02 06:15:52;;;;;;;6.80;4.20;;;13.60;1.00;;;;;;5057564;28;20454;-80
2023/06/02 06:18:19;;;;;;;8.90;4.33;;;13.60;1.00;;;;;;5057296;28;20472;-79
2023/06/02 06:20:46;;;;;;;9.17;3.67;;;13.70;1.00;;;;;;5055992;28;20540;-80
2023/06/02 06:23:13;;;;;;;7.50;4.53;;;13.70;1.00;;;;;;5056479;28;20485;-81
2023/06/02 06:25:40;;;;;;;10.33;4.97;;;13.70;1.00;;;;;;5058052;28;20446;-80
2023/06/02 06:28:07;;;;;;;8.17;4.37;;;13.60;1.00;;;;;;5057724;28;20562;-80
2023/06/02 06:30:35;;;;;;;14.30;5.00;;;13.60;1.00;;;;;;5057799;28;20457;-81
2023/06/02 06:33:03;;;;;;;9.27;3.90;;;13.60;1.00;;;;;;5056837;28;20472;-80
2023/06/02 06:35:30;;;;;;;8.90;4.93;;;13.70;1.00;;;;;;5055945;28;20452;-80
2023/06/02 06:37:56;;;;;;;7.70;3.90;;;13.60;1.00;;;;;;5059688;28;20498;-78
2023/06/02 06:40:24;;;;;;;11.70;5.23;;;13.60;1.00;;;;;;5061817;28;20534;-78
2023/06/02 06:42:51;;;;;;;8.80;4.50;;;13.70;1.00;;;;;;5058602;28;20487;-78
2023/06/02 06:45:17;;;;;;;7.17;3.43;;;13.70;1.00;;;;;;5055660;28;20464;-80
2023/06/02 06:47:45;;;;;;;10.33;4.30;;;13.80;1.00;;;;;;5055320;28;20478;-80
2023/06/02 06:50:14;;;;;;;11.07;4.90;;;13.80;1.00;;;;;;5054679;28;20449;-80
2023/06/02 06:52:41;;;;;;;10.13;4.00;;;13.80;1.00;;;;;;5054463;28;20452;-79
2023/06/02 06:55:08;;;;;;;11.47;4.00;;;13.90;1.00;;;;;;5054531;28;20460;-79
2023/06/02 06:57:35;;;;;;;7.33;4.20;;;13.90;1.00;;;;;;5055004;28;20476;-79
2023/06/02 07:00:03;;;;;;;7.27;4.00;;;13.90;1.00;;;;;;5055591;28;20547;-78
2023/06/02 07:02:30;;;;;;;11.97;4.60;;;14.00;1.00;;;;;;5055146;28;20600;-78
2023/06/02 07:04:56;;;;;;;12.30;5.20;;;14.10;1.00;;;;;;5054799;28;20460;-79
2023/06/02 07:07:25;;;;;;;14.63;4.50;;;14.10;1.00;;;;;;5056107;28;20474;-80
2023/06/02 07:09:51;;;;;;;7.63;3.90;;;14.10;1.00;;;;;;5055875;28;20468;-78
2023/06/02 07:12:18;;;;;;;6.27;3.63;;;14.00;1.00;;;;;;5056022;28;20452;-81
2023/06/02 07:14:45;;;;;;;9.07;3.83;;;14.10;1.00;;;;;;5055815;28;20455;-79
2023/06/02 07:17:12;;;;;;;9.20;3.77;;;14.20;1.00;;;;;;5056498;28;20471;-77
2023/06/02 07:19:39;;;;;;;8.40;4.00;;;14.20;1.00;;;;;;5054758;28;20448;-80
2023/06/02 07:22:06;;;;;;;13.27;5.90;;;14.20;1.00;;;;;;5056118;28;20479;-81
2023/06/02 07:24:34;;;;;;;8.17;3.97;;;14.20;1.00;;;;;;5056174;28;20458;-80
2023/06/02 07:27:03;;;;;;;9.03;4.10;;;14.20;1.00;;;;;;5055788;28;20479;-80
2023/06/02 07:29:30;;;;;;;10.43;4.10;;;14.10;1.00;;;;;;5057208;28;20801;-78
2023/06/02 07:31:57;;;;;;;8.87;4.07;;;14.20;1.00;;;;;;5057631;28;20535;-80
2023/06/02 07:34:23;;;;;;;9.50;3.30;;;14.30;1.00;;;;;;5057087;28;20453;-79
2023/06/02 07:36:50;;;;;;;12.93;4.93;;;14.30;1.00;;;;;;5057952;28;20565;-77
2023/06/02 07:39:17;;;;;;;7.47;3.73;;;14.40;1.00;;;;;;5057412;28;20447;-79
2023/06/02 07:41:45;;;;;;;10.73;3.73;;;14.50;1.00;;;;;;5056915;28;20573;-79
2023/06/02 07:44:14;;;;;;;10.20;4.27;;;14.50;1.00;;;;;;5055610;28;20462;-79
2023/06/02 07:46:41;;;;;;;6.60;3.90;;;14.50;1.00;;;;;;5057895;28;20462;-80
2023/06/02 07:49:07;;;;;;;12.37;3.73;;;14.50;1.00;;;;;;5058185;28;20911;-78
2023/06/02 07:51:34;;;;;;;13.33;3.80;;;14.50;1.00;;;;;;5058042;28;20552;-80
2023/06/02 07:54:01;;;;;;;10.30;2.90;;;14.60;1.00;;;;;;5058844;28;20443;-79
2023/06/02 07:56:28;;;;;;;8.93;3.77;;;14.80;1.00;;;;;;5058326;28;20526;-79
2023/06/02 07:58:56;;;;;;;6.90;2.47;;;14.70;1.00;;;;;;5058561;28;20443;-81
2023/06/02 08:01:23;;;;;;;10.13;3.30;;;14.80;1.00;;;;;;5058082;28;20454;-77
2023/06/02 08:03:50;;;;;;;6.50;2.93;;;15.00;1.00;;;;;;5059524;28;20490;-80
2023/06/02 08:06:17;;;;;;;10.50;3.37;;;15.10;1.00;;;;;;5059113;28;20478;-78
2023/06/02 08:08:45;;;;;;;7.87;3.20;;;15.20;1.00;;;;;;5059499;28;20559;-79
2023/06/02 08:11:12;;;;;;;10.23;2.80;;;15.20;1.00;;;;;;5059598;28;20925;-79
2023/06/02 08:13:38;;;;;;;6.77;2.80;;;15.20;1.00;;;;;;5060637;28;20455;-78
2023/06/02 08:16:07;;;;;;;9.87;3.83;;;15.40;1.00;;;;;;5060387;28;20519;-80
2023/06/02 08:18:34;;;;;;;8.20;3.20;;;15.40;1.00;;;;;;5061522;28;20464;-81
2023/06/02 08:21:00;;;;;;;8.03;3.33;;;15.40;1.00;;;;;;5058686;28;20510;-79
2023/06/02 08:23:27;;;;;;;9.60;3.03;;;15.60;1.00;;;;;;5060437;28;20564;-81
2023/06/02 08:25:54;;;;;;;9.07;2.80;;;15.70;1.00;;;;;;5060981;28;20535;-78
2023/06/02 08:28:24;;;;;;;6.83;3.00;;;15.80;1.00;;;;;;5061277;28;20472;-79
2023/06/02 08:30:51;;;;;;;8.00;2.90;;;15.90;1.00;;;;;;5060930;28;21091;-80
2023/06/02 08:33:21;;;;;;;7.83;2.80;;;16.00;1.00;;;;;;5061432;28;21038;-79
2023/06/02 08:35:51;;;;;;;8.27;3.60;;;16.00;1.00;;;;;;5062433;28;20520;-79
2023/06/02 08:38:17;;;;;;;8.53;3.20;;;16.00;1.00;;;;;;5061121;28;20478;-79
2023/06/02 08:40:47;;;;;;;7.63;2.50;;;16.10;1.00;;;;;;5062036;28;20519;-80
2023/06/02 08:43:14;;;;;;;10.23;3.00;;;16.20;99.90;;;;;;5058596;28;20845;-80
2023/06/02 08:45:42;;;;;;;8.40;3.00;;;16.60;99.90;;;;;;5057943;28;20456;-80
2023/06/02 08:48:15;;;;;;;7.97;2.90;;;16.80;1.00;;;;;;5059538;28;20479;-80
2023/06/02 08:50:46;;;;;;;11.17;3.47;;;17.00;1.00;;;;;;5061464;28;20913;-80
2023/06/02 08:53:15;;;;;;;7.33;3.67;;;17.00;99.90;;;;;;5065097;28;20507;-82
2023/06/02 08:55:42;;;;;;;6.20;2.20;;;16.90;1.00;;;;;;5063961;28;20447;-80
2023/06/02 08:58:10;;;;;;;9.07;3.30;;;17.00;1.00;;;;;;5063617;28;20483;-81
2023/06/02 09:00:37;;;;;;;8.90;3.27;;;17.00;99.90;;;;;;5064437;28;20443;-83
2023/06/02 09:03:04;;;;;;;6.03;3.20;;;17.20;99.90;;;;;;5063563;28;20548;-81
2023/06/02 09:05:35;;;;;;;11.70;3.40;;;17.40;99.90;;;;;;5066998;28;20468;-81
2023/06/02 09:08:10;;;;;;;9.00;3.13;;;17.30;99.90;;;;;;5068489;28;20476;-82
2023/06/02 09:10:41;;;;;;;9.00;3.23;;;17.30;99.90;;;;;;5068288;28;20438;-84
2023/06/02 09:13:08;;;;;;;7.30;3.50;;;17.30;99.90;;;;;;5065192;28;20451;-79
2023/06/02 09:15:36;;;;;;;5.53;2.90;;;17.30;99.90;;;;;;5065524;28;20449;-80
2023/06/02 09:18:14;;;;;;;9.90;3.87;;;17.40;99.90;;;;;;5064127;28;20468;-80
2023/06/02 09:20:41;;;;;;;11.10;3.97;;;17.50;99.90;;;;;;5062324;28;20463;-77
2023/06/02 09:23:09;;;;;;;13.00;3.67;;;17.70;99.90;;;;;;5066085;28;20576;-82
2023/06/02 09:25:38;;;;;;;8.80;3.17;;;17.90;99.90;;;;;;5068134;28;21054;-80
2023/06/02 09:28:05;;;;;;;11.20;4.20;;;18.00;99.90;;;;;;5068062;28;20481;-82
2023/06/02 09:30:31;;;;;;;9.33;4.03;;;18.30;99.90;;;;;;5068171;28;20540;-81
2023/06/02 09:32:59;;;;;;;6.97;3.47;;;18.40;99.90;;;;;;5065812;28;20821;-81
2023/06/02 09:35:44;;;;;;;13.37;3.27;;;18.20;99.90;;;;;;5065743;28;20450;-80
2023/06/02 09:38:15;;;;;;;15.67;3.40;;;18.00;99.90;;;;;;5065599;28;20557;-81
2023/06/02 09:40:43;;;;;;;8.77;3.93;;;18.10;99.90;;;;;;5066325;28;20438;-80
2023/06/02 09:43:12;;;;;;;8.40;3.93;;;18.10;99.90;;;;;;5065890;28;20530;-81
2023/06/02 09:46:00;;;;;;;6.90;3.80;;;18.30;99.90;;;;;;5067470;28;20896;-80
2023/06/02 09:48:27;;;;;;;5.70;3.10;;;18.20;99.90;;;;;;5067436;28;20874;-81
2023/06/02 09:50:55;;;;;;;12.40;3.90;;;18.10;99.90;;;;;;5067080;28;20462;-80
2023/06/02 09:53:23;;;;;;;8.53;3.60;;;18.00;99.90;;;;;;5064540;28;20560;-80
2023/06/02 09:55:51;;;;;;;9.10;3.67;;;18.10;99.90;;;;;;5066510;28;20454;-80
2023/06/02 09:58:19;;;;;;;8.87;4.13;;;18.20;99.90;;;;;;5065608;28;20533;-81
2023/06/02 10:00:46;;;;;;;5.43;3.67;;;18.40;99.90;;;;;;5066653;28;20516;-79
2023/06/02 10:03:13;;;;;;;6.17;3.33;;;18.50;99.90;;;;;;5065413;28;20482;-78
2023/06/02 10:05:45;;;;;;;6.63;3.47;;;18.70;99.90;;;;;;5066173;28;21045;-79
2023/06/02 10:08:24;;;;;;;8.73;4.00;;;19.20;99.90;;;;;;5066518;28;20481;-78
2023/06/02 10:11:09;;;;;;;9.60;3.70;;;19.70;99.90;;;;;;5067479;28;20443;-79
2023/06/02 10:13:52;;;;;;;10.73;3.80;;;19.90;99.90;;;;;;5066017;28;20447;-78
2023/06/02 10:16:34;;;;;;;8.30;3.50;;;20.50;99.90;;;;;;5066569;28;20946;-81
2023/06/02 10:19:29;;;;;;;11.23;3.90;;;20.80;99.90;;;;;;5065755;28;20442;-78
2023/06/02 10:22:10;;;;;;;8.93;3.53;;;20.70;99.90;;;;;;5066138;28;20455;-80
2023/06/02 10:24:49;;;;;;;10.67;4.30;;;20.90;99.90;;;;;;5065064;28;20436;-79
2023/06/02 10:27:26;;;;;;;13.90;4.20;;;20.90;99.90;;;;;;5061725;28;20476;-80
2023/06/02 10:29:54;;;;;;;11.87;3.50;;;21.00;99.90;;;;;;5063207;28;20454;-79
2023/06/02 10:32:23;;;;;;;8.60;4.27;;;21.10;99.90;;;;;;5063371;28;20547;-78
2023/06/02 10:34:51;;;;;;;7.70;3.97;;;20.90;99.90;;;;;;5061487;28;20478;-79
2023/06/02 10:37:19;;;;;;;9.60;3.70;;;20.50;99.90;;;;;;5059729;28;20529;-80
2023/06/02 10:39:53;;;;;;;8.03;3.50;;;20.80;99.90;;;;;;5060626;28;20663;-80
2023/06/02 10:42:23;;;;;;;13.50;3.37;;;21.20;99.90;;;;;;5059214;28;20454;-79
2023/06/02 10:44:51;;;;;;;7.40;3.47;;;21.30;99.90;;;;;;5060990;28;20516;-80
2023/06/02 10:47:35;;;;;;;6.03;3.30;;;21.10;99.90;;;;;;5060803;28;20463;-82
2023/06/02 10:50:03;;;;;;;11.93;4.40;;;21.40;99.90;;;;;;5058576;28;20448;-83
2023/06/02 10:52:31;;;;;;;8.43;4.20;;;21.70;99.90;;;;;;5058693;28;20462;-82
2023/06/02 10:55:26;;;;;;;8.83;4.47;;;21.90;99.90;;;;;;5059318;28;20483;-82
2023/06/02 10:57:56;;;;;;;7.70;3.93;;;22.50;99.90;;;;;;5059259;28;20482;-82
2023/06/02 11:00:45;;;;;;;10.80;3.90;;;22.80;99.90;;;;;;5059198;28;20455;-82
2023/06/02 11:03:32;;;;;;;9.37;4.83;;;22.60;99.90;;;;;;5057908;28;20566;-81
2023/06/02 11:06:19;;;;;;;10.77;5.37;;;22.80;99.90;;;;;;5058250;28;20448;-82
2023/06/02 11:08:47;;;;;;;7.57;4.67;;;22.80;99.90;;;;;;5059309;28;20467;-83
2023/06/02 11:11:51;;;;;;;10.80;4.63;;;22.50;99.90;;;;;;5058648;28;20458;-81
2023/06/02 11:14:19;;;;;;;10.43;4.70;;;23.00;99.90;;;;;;5056856;28;20475;-82
2023/06/02 11:16:46;;;;;;;10.57;5.07;;;23.90;99.90;;;;;;5058326;28;20444;-83
2023/06/02 11:19:33;;;;;;;8.57;4.87;;;24.50;99.90;;;;;;5057524;28;20452;-82
2023/06/02 11:22:04;;;;;;;8.07;4.70;;;24.70;99.90;;;;;;5058102;28;20538;-83
2023/06/02 11:24:31;;;;;;;8.30;5.00;;;24.80;99.90;;;;;;5059404;28;20594;-81
2023/06/02 11:26:58;;;;;;;8.90;4.20;;;24.90;99.90;;;;;;5058169;28;20523;-81
2023/06/02 11:29:26;;;;;;;8.50;3.63;;;24.60;99.90;;;;;;5058051;28;20451;-81
2023/06/02 11:31:53;;;;;;;8.03;3.60;;;24.90;99.90;;;;;;5057806;28;20458;-83
2023/06/02 11:34:19;;;;;;;8.93;4.67;;;24.90;99.90;;;;;;5057832;28;20936;-81
2023/06/02 11:36:48;;;;;;;9.90;3.50;;;25.10;99.90;;;;;;5059524;28;20444;-82
2023/06/02 11:39:16;;;;;;;11.03;4.40;;;25.50;99.90;;;;;;5058253;28;20460;-80
2023/06/02 11:41:56;;;;;;;8.70;4.40;;;26.00;99.90;;;;;;5058388;28;20448;-82
2023/06/02 11:44:23;;;;;;;7.73;4.30;;;26.50;99.90;;;;;;5057353;28;20487;-81
2023/06/02 11:46:52;;;;;;;11.70;5.23;;;26.10;99.90;;;;;;5057697;28;20906;-81
2023/06/02 11:49:19;;;;;;;11.00;4.80;;;25.50;99.90;;;;;;5057121;28;21026;-80
2023/06/02 11:51:46;;;;;;;8.20;4.30;;;25.00;99.90;;;;;;5058332;28;20458;-79
2023/06/02 11:54:13;;;;;;;8.20;3.83;;;25.00;99.90;;;;;;5063925;28;20452;-80
2023/06/02 11:56:42;;;;;;;11.77;4.30;;;25.60;99.90;;;;;;5066218;28;20452;-81
2023/06/02 11:59:16;;;;;;;9.43;4.60;;;26.30;99.90;;;;;;5066746;28;21025;-82
2023/06/02 12:01:44;;;;;;;8.83;3.80;;;26.60;99.90;;;;;;5059893;28;20436;-82
2023/06/02 12:04:13;;;;;;;11.43;5.40;;;26.00;99.90;;;;;;5057642;28;20488;-82
2023/06/02 12:06:46;;;;;;;7.20;4.43;;;25.90;99.90;;;;;;5058662;28;20458;-80
2023/06/02 12:09:15;;;;;;;9.40;4.30;;;25.90;99.90;;;;;;5058815;28;20460;-83
2023/06/02 12:11:42;;;;;;;9.97;3.93;;;26.30;99.90;;;;;;5057969;28;20538;-82
2023/06/02 12:14:10;;;;;;;7.10;4.30;;;26.30;99.90;;;;;;5057295;28;20448;-83
2023/06/02 12:16:40;;;;;;;6.57;3.70;;;25.80;99.90;;;;;;5058383;28;20458;-82
2023/06/02 12:19:19;;;;;;;8.70;3.83;;;25.60;99.90;;;;;;5058026;28;20458;-84
2023/06/02 12:21:46;;;;;;;8.87;4.00;;;26.00;99.90;;;;;;5058518;28;20439;-83
2023/06/02 12:24:29;;;;;;;9.50;3.70;;;26.60;99.90;;;;;;5058297;28;20869;-83
2023/06/02 12:26:56;;;;;;;12.00;4.23;;;26.90;99.90;;;;;;5062851;28;20471;-82
2023/06/02 12:29:22;;;;;;;10.97;4.20;;;26.30;99.90;;;;;;5062997;28;20454;-82
2023/06/02 12:31:56;;;;;;;9.83;4.03;;;26.60;99.90;;;;;;5062516;28;20465;-81
2023/06/02 12:34:25;;;;;;;8.00;4.50;;;27.30;99.90;;;;;;5061639;28;20499;-83
2023/06/02 12:36:52;;;;;;;7.90;4.83;;;27.90;99.90;;;;;;5062156;28;20473;-83
2023/06/02 12:39:19;;;;;;;12.70;4.43;;;27.40;99.90;;;;;;5062332;28;20451;-82
2023/06/02 12:41:45;;;;;;;7.33;4.23;;;27.90;99.90;;;;;;5061846;28;20462;-84
2023/06/02 12:44:12;;;;;;;9.27;4.40;;;28.30;99.90;;;;;;5060572;28;20987;-82
2023/06/02 12:46:39;;;;;;;8.57;4.30;;;28.70;99.90;;;;;;5062040;28;20450;-82
2023/06/02 12:49:08;;;;;;;13.53;4.57;;;29.10;99.90;;;;;;5061487;28;20459;-81
2023/06/02 12:51:37;;;;;;;9.80;4.30;;;29.40;99.90;;;;;;5061883;28;20966;-83
2023/06/02 12:54:04;;;;;;;8.67;3.77;;;29.70;99.90;;;;;;5061299;28;20531;-81
2023/06/02 12:56:31;;;;;;;8.67;4.30;;;29.30;99.90;;;;;;5061274;28;20451;-81
2023/06/02 12:58:58;;;;;;;9.40;4.10;;;27.80;99.90;;;;;;5060698;28;20450;-83